createdAt,value
2022-11-28T00:00:28.935Z,88.09
2022-11-28T00:01:28.913Z,87.99
2022-11-28T00:02:29.112Z,87.88
2022-11-28T00:03:28.962Z,88.30
2022-11-28T00:04:28.899Z,88.71
2022-11-28T00:05:28.900Z,89.23
2022-11-28T00:06:28.957Z,89.44
2022-11-28T00:07:28.986Z,89.75
2022-11-28T00:08:28.901Z,89.65
2022-11-28T00:09:28.875Z,89.54
2022-11-28T00:10:28.849Z,89.54
2022-11-28T00:11:28.847Z,89.75
2022-11-28T00:12:28.842Z,89.69
2022-11-28T00:13:28.830Z,89.17
2022-11-28T00:14:28.862Z,89.79
2022-11-28T00:15:28.823Z,89.38
2022-11-28T00:16:28.934Z,89.17
2022-11-28T00:17:28.799Z,89.75
2022-11-28T00:18:28.786Z,89.48
2022-11-28T00:19:28.792Z,88.76
2022-11-28T00:20:28.833Z,88.86
2022-11-28T00:21:28.776Z,88.76
2022-11-28T00:22:28.829Z,88.76
2022-11-28T00:23:28.755Z,89.07
2022-11-28T00:24:28.761Z,88.86
2022-11-28T00:25:28.751Z,89.13
2022-11-28T00:26:28.777Z,89.48
2022-11-28T00:27:28.738Z,89.17
2022-11-28T00:28:28.742Z,88.55
2022-11-28T00:29:28.720Z,89.07
2022-11-28T00:30:28.733Z,89.28
2022-11-28T00:31:28.807Z,88.96
2022-11-28T00:32:28.741Z,89.28
2022-11-28T00:33:28.697Z,88.96
2022-11-28T00:34:28.694Z,89.42
2022-11-28T00:35:28.681Z,90.10
2022-11-28T00:36:28.700Z,89.83
2022-11-28T00:37:28.688Z,89.83
2022-11-28T00:38:28.767Z,90.00
2022-11-28T00:39:28.669Z,89.31
2022-11-28T00:40:28.690Z,89.69
2022-11-28T00:41:28.744Z,89.28
2022-11-28T00:42:28.647Z,89.79
2022-11-28T00:43:28.631Z,89.94
2022-11-28T00:44:28.705Z,89.62
2022-11-28T00:45:28.690Z,89.73
2022-11-28T00:46:28.622Z,90.25
2022-11-28T00:47:28.601Z,90.04
2022-11-28T00:48:28.611Z,90.04
2022-11-28T00:49:28.604Z,89.42
2022-11-28T00:50:28.652Z,90.56
2022-11-28T00:51:28.593Z,90.66
2022-11-28T00:52:28.583Z,89.73
2022-11-28T00:53:28.552Z,89.83
2022-11-28T00:54:28.593Z,89.42
2022-11-28T00:55:28.565Z,89.21
2022-11-28T00:56:28.734Z,89.67
2022-11-28T00:57:28.530Z,89.87
2022-11-28T00:58:28.535Z,89.62
2022-11-28T00:59:28.545Z,89.83
2022-11-28T01:00:28.531Z,89.87
2022-11-28T01:01:28.621Z,89.46
2022-11-28T01:02:28.634Z,90.50
2022-11-28T01:03:28.495Z,90.81
2022-11-28T01:04:28.531Z,90.81
2022-11-28T01:05:28.463Z,91.06
2022-11-28T01:06:28.482Z,91.64
2022-11-28T01:07:28.506Z,91.22
2022-11-28T01:08:28.539Z,91.22
2022-11-28T01:09:28.447Z,90.81
2022-11-28T01:10:28.516Z,91.02
2022-11-28T01:11:28.442Z,91.33
2022-11-28T01:12:28.441Z,91.22
2022-11-28T01:13:28.470Z,90.81
2022-11-28T01:14:28.504Z,90.60
2022-11-28T01:15:28.419Z,89.77
2022-11-28T01:16:28.492Z,89.77
2022-11-28T01:17:28.412Z,89.98
2022-11-28T01:18:28.405Z,89.98
2022-11-28T01:19:28.383Z,90.08
2022-11-28T01:20:28.434Z,89.67
2022-11-28T01:21:28.376Z,91.02
2022-11-28T01:22:28.371Z,90.81
2022-11-28T01:23:28.347Z,90.81
2022-11-28T01:24:28.363Z,90.60
2022-11-28T01:25:28.336Z,90.81
2022-11-28T01:26:28.433Z,90.64
2022-11-28T01:27:28.346Z,90.85
2022-11-28T01:28:28.325Z,91.02
2022-11-28T01:29:28.315Z,90.02
2022-11-28T01:30:28.317Z,90.54
2022-11-28T01:31:28.330Z,90.95
2022-11-28T01:32:28.341Z,91.27
2022-11-28T01:33:28.301Z,91.16
2022-11-28T01:34:28.293Z,91.16
2022-11-28T01:35:28.262Z,90.85
2022-11-28T01:36:28.273Z,91.27
2022-11-28T01:37:28.251Z,91.16
2022-11-28T01:38:28.306Z,91.27
2022-11-28T01:39:28.247Z,91.31
2022-11-28T01:40:28.254Z,91.31
2022-11-28T01:41:28.217Z,91.52
2022-11-28T01:42:28.296Z,91.31
2022-11-28T01:43:28.205Z,91.00
2022-11-28T01:44:28.278Z,90.79
2022-11-28T01:45:28.195Z,90.17
2022-11-28T01:46:28.296Z,91.41
2022-11-28T01:47:28.176Z,91.20
2022-11-28T01:48:28.179Z,91.20
2022-11-28T01:49:28.164Z,91.10
2022-11-28T01:50:28.222Z,90.89
2022-11-28T01:51:28.151Z,91.10
2022-11-28T01:52:28.132Z,91.10
2022-11-28T01:53:28.161Z,91.10
2022-11-28T01:54:28.144Z,90.89
2022-11-28T01:55:28.121Z,90.89
2022-11-28T01:56:28.175Z,91.62
2022-11-28T01:57:28.141Z,91.62
2022-11-28T01:58:28.175Z,92.14
2022-11-28T01:59:28.123Z,91.93
2022-11-28T02:00:28.134Z,91.93
2022-11-28T02:01:28.163Z,91.52
2022-11-28T02:02:28.580Z,91.62
2022-11-28T02:03:28.101Z,91.10
2022-11-28T02:04:28.097Z,91.27
2022-11-28T02:05:28.056Z,91.27
2022-11-28T02:06:28.083Z,90.85
2022-11-28T02:07:28.089Z,90.79
2022-11-28T02:08:28.117Z,91.00
2022-11-28T02:09:28.050Z,90.69
2022-11-28T02:10:28.032Z,91.72
2022-11-28T02:11:28.024Z,91.37
2022-11-28T02:12:28.054Z,91.78
2022-11-28T02:13:28.008Z,92.03
2022-11-28T02:14:28.111Z,91.93
2022-11-28T02:15:28.005Z,91.89
2022-11-28T02:16:28.075Z,91.72
2022-11-28T02:17:27.973Z,91.16
2022-11-28T02:18:27.977Z,91.16
2022-11-28T02:19:27.954Z,91.16
2022-11-28T02:20:27.971Z,91.27
2022-11-28T02:21:27.957Z,91.68
2022-11-28T02:22:27.955Z,91.37
2022-11-28T02:23:27.949Z,91.47
2022-11-28T02:24:27.919Z,92.10
2022-11-28T02:25:27.921Z,91.89
2022-11-28T02:26:27.956Z,92.10
2022-11-28T02:27:27.902Z,91.99
2022-11-28T02:28:27.883Z,91.78
2022-11-28T02:29:27.965Z,91.37
2022-11-28T02:30:27.952Z,91.89
2022-11-28T02:31:27.964Z,91.89
2022-11-28T02:32:27.913Z,92.20
2022-11-28T02:33:27.874Z,91.99
2022-11-28T02:34:27.854Z,91.47
2022-11-28T02:35:27.847Z,91.89
2022-11-28T02:36:27.837Z,91.16
2022-11-28T02:37:27.833Z,90.33
2022-11-28T02:38:27.863Z,90.33
2022-11-28T02:39:27.806Z,90.85
2022-11-28T02:40:27.809Z,89.81
2022-11-28T02:41:27.805Z,90.29
2022-11-28T02:42:27.815Z,89.81
2022-11-28T02:43:27.808Z,91.16
2022-11-28T02:44:27.816Z,91.06
2022-11-28T02:45:27.863Z,91.37
2022-11-28T02:46:27.891Z,91.22
2022-11-28T02:47:27.770Z,91.02
2022-11-28T02:48:27.846Z,91.02
2022-11-28T02:49:27.763Z,90.08
2022-11-28T02:50:27.773Z,91.02
2022-11-28T02:51:27.730Z,90.91
2022-11-28T02:52:27.728Z,90.91
2022-11-28T02:53:27.740Z,90.81
2022-11-28T02:54:27.714Z,91.18
2022-11-28T02:55:27.738Z,90.08
2022-11-28T02:56:27.814Z,90.60
2022-11-28T02:57:27.723Z,91.22
2022-11-28T02:58:27.691Z,91.64
2022-11-28T02:59:27.670Z,91.74
2022-11-28T03:00:27.761Z,92.36
2022-11-28T03:01:27.810Z,92.57
2022-11-28T03:02:27.845Z,93.29
2022-11-28T03:03:27.669Z,92.26
2022-11-28T03:04:27.668Z,91.74
2022-11-28T03:05:27.645Z,91.02
2022-11-28T03:06:27.664Z,90.29
2022-11-28T03:07:27.639Z,90.81
2022-11-28T03:08:27.905Z,91.33
2022-11-28T03:09:27.628Z,91.33
2022-11-28T03:10:27.615Z,91.85
2022-11-28T03:11:27.581Z,91.85
2022-11-28T03:12:27.582Z,91.95
2022-11-28T03:13:27.571Z,91.53
2022-11-28T03:14:27.649Z,91.33
2022-11-28T03:15:27.571Z,91.43
2022-11-28T03:16:27.666Z,91.53
2022-11-28T03:17:27.564Z,91.85
2022-11-28T03:18:27.631Z,92.05
2022-11-28T03:19:27.548Z,92.16
2022-11-28T03:20:27.608Z,91.12
2022-11-28T03:21:27.541Z,91.27
2022-11-28T03:22:27.524Z,91.06
2022-11-28T03:23:27.527Z,90.85
2022-11-28T03:24:36.438Z,91.02
2022-11-28T03:25:27.500Z,91.74
2022-11-28T03:26:27.552Z,91.64
2022-11-28T03:27:27.485Z,91.85
2022-11-28T03:28:27.494Z,91.74
2022-11-28T03:29:27.510Z,91.74
2022-11-28T03:30:27.490Z,91.64
2022-11-28T03:31:27.515Z,91.53
2022-11-28T03:32:27.523Z,91.74
2022-11-28T03:33:27.441Z,90.91
2022-11-28T03:34:27.489Z,90.66
2022-11-28T03:35:27.441Z,90.81
2022-11-28T03:36:27.427Z,90.91
2022-11-28T03:37:27.402Z,91.33
2022-11-28T03:38:27.493Z,90.50
2022-11-28T03:39:27.407Z,91.22
2022-11-28T03:40:27.406Z,90.91
2022-11-28T03:41:27.400Z,90.39
2022-11-28T03:42:27.377Z,90.81
2022-11-28T03:43:27.374Z,90.70
2022-11-28T03:44:27.421Z,90.45
2022-11-28T03:45:27.369Z,90.04
2022-11-28T03:46:27.423Z,90.70
2022-11-28T03:47:27.339Z,90.70
2022-11-28T03:48:27.323Z,90.35
2022-11-28T03:49:27.315Z,90.81
2022-11-28T03:50:27.423Z,90.56
2022-11-28T03:51:27.322Z,91.08
2022-11-28T03:52:27.340Z,91.08
2022-11-28T03:53:27.306Z,90.77
2022-11-28T03:54:27.301Z,89.62
2022-11-28T03:55:27.386Z,90.87
2022-11-28T03:56:27.356Z,89.11
2022-11-28T03:57:27.296Z,89.77
2022-11-28T03:58:27.285Z,90.25
2022-11-28T03:59:27.293Z,89.73
2022-11-28T04:00:27.249Z,89.31
2022-11-28T04:01:27.289Z,89.83
2022-11-28T04:02:27.304Z,89.62
2022-11-28T04:03:27.349Z,89.62
2022-11-28T04:04:27.229Z,90.77
2022-11-28T04:05:27.229Z,90.77
2022-11-28T04:06:27.315Z,90.66
2022-11-28T04:07:27.352Z,89.69
2022-11-28T04:08:27.548Z,89.83
2022-11-28T04:09:27.201Z,89.94
2022-11-28T04:10:27.185Z,89.73
2022-11-28T04:11:27.204Z,89.73
2022-11-28T04:12:27.192Z,89.25
2022-11-28T04:13:27.176Z,90.70
2022-11-28T04:14:27.215Z,90.81
2022-11-28T04:15:27.155Z,90.60
2022-11-28T04:16:27.223Z,90.77
2022-11-28T04:17:27.166Z,90.70
2022-11-28T04:18:27.144Z,90.60
2022-11-28T04:19:27.131Z,90.50
2022-11-28T04:20:27.193Z,91.12
2022-11-28T04:21:27.124Z,90.81
2022-11-28T04:22:27.154Z,90.64
2022-11-28T04:23:27.096Z,90.91
2022-11-28T04:24:27.103Z,90.70
2022-11-28T04:25:27.099Z,90.39
2022-11-28T04:26:27.152Z,90.70
2022-11-28T04:27:27.072Z,90.70
2022-11-28T04:28:27.050Z,90.70
2022-11-28T04:29:27.067Z,90.91
2022-11-28T04:30:27.029Z,89.98
2022-11-28T04:31:27.121Z,89.77
2022-11-28T04:32:27.082Z,89.67
2022-11-28T04:33:27.046Z,89.73
2022-11-28T04:34:27.091Z,90.08
2022-11-28T04:35:27.016Z,90.02
2022-11-28T04:36:27.026Z,89.36
2022-11-28T04:37:27.003Z,88.84
2022-11-28T04:38:27.082Z,90.39
2022-11-28T04:39:26.990Z,91.22
2022-11-28T04:40:26.985Z,90.19
2022-11-28T04:41:26.992Z,89.87
2022-11-28T04:42:26.967Z,89.46
2022-11-28T04:43:26.942Z,89.77
2022-11-28T04:44:27.023Z,89.36
2022-11-28T04:45:26.995Z,89.62
2022-11-28T04:46:27.103Z,89.98
2022-11-28T04:47:26.934Z,90.19
2022-11-28T04:48:31.293Z,89.36
2022-11-28T04:49:27.977Z,90.04
2022-11-28T04:50:26.918Z,89.42
2022-11-28T04:51:26.910Z,89.77
2022-11-28T04:52:26.914Z,89.77
2022-11-28T04:53:26.893Z,89.25
2022-11-28T04:54:26.935Z,89.67
2022-11-28T04:55:26.938Z,89.56
2022-11-28T04:56:26.870Z,89.73
2022-11-28T04:57:26.857Z,90.29
2022-11-28T04:58:26.872Z,89.67
2022-11-28T04:59:26.833Z,90.77
2022-11-28T05:00:26.847Z,91.33
2022-11-28T05:01:26.979Z,91.60
2022-11-28T05:02:26.886Z,91.53
2022-11-28T05:03:26.816Z,91.53
2022-11-28T05:04:26.822Z,91.53
2022-11-28T05:05:26.845Z,91.43
2022-11-28T05:06:26.781Z,91.43
2022-11-28T05:07:26.902Z,91.78
2022-11-28T05:08:26.780Z,91.99
2022-11-28T05:09:26.784Z,92.41
2022-11-28T05:10:47.818Z,92.93
2022-11-28T05:11:26.771Z,93.19
2022-11-28T05:12:26.759Z,93.44
2022-11-28T05:13:27.048Z,93.29
2022-11-28T05:14:26.734Z,93.19
2022-11-28T05:15:26.742Z,93.29
2022-11-28T05:16:26.795Z,93.19
2022-11-28T05:17:26.709Z,93.08
2022-11-28T05:18:26.716Z,92.98
2022-11-28T05:19:26.777Z,92.98
2022-11-28T05:20:26.723Z,92.05
2022-11-28T05:21:26.707Z,92.16
2022-11-28T05:22:26.693Z,92.16
2022-11-28T05:23:26.674Z,93.29
2022-11-28T05:24:31.955Z,92.82
2022-11-28T05:25:27.723Z,93.29
2022-11-28T05:26:26.700Z,93.40
2022-11-28T05:27:26.661Z,93.23
2022-11-28T05:28:26.663Z,93.29
2022-11-28T05:29:26.612Z,92.57
2022-11-28T05:30:26.657Z,92.30
2022-11-28T05:31:26.736Z,92.51
2022-11-28T05:32:26.616Z,92.41
2022-11-28T05:33:26.626Z,93.40
2022-11-28T05:34:26.650Z,92.57
2022-11-28T05:35:26.583Z,92.30
2022-11-28T05:36:26.610Z,92.41
2022-11-28T05:37:26.642Z,93.54
2022-11-28T05:38:26.587Z,93.02
2022-11-28T05:39:26.573Z,93.29
2022-11-28T05:40:26.549Z,93.08
2022-11-28T05:41:26.552Z,93.29
2022-11-28T05:42:26.592Z,93.85
2022-11-28T05:43:26.604Z,94.02
2022-11-28T05:44:27.140Z,93.33
2022-11-28T05:45:26.600Z,93.33
2022-11-28T05:46:26.528Z,93.33
2022-11-28T05:47:26.508Z,93.02
2022-11-28T05:48:26.502Z,93.54
2022-11-28T05:49:26.549Z,93.02
2022-11-28T05:50:26.479Z,93.44
2022-11-28T05:51:26.504Z,93.13
2022-11-28T05:52:26.482Z,93.13
2022-11-28T05:53:26.447Z,93.44
2022-11-28T05:54:26.458Z,93.13
2022-11-28T05:55:26.486Z,93.44
2022-11-28T05:56:26.466Z,93.44
2022-11-28T05:57:26.444Z,93.54
2022-11-28T05:58:26.489Z,93.85
2022-11-28T05:59:26.408Z,93.23
2022-11-28T06:00:26.431Z,93.23
2022-11-28T06:01:26.469Z,93.33
2022-11-28T06:02:26.444Z,93.13
2022-11-28T06:03:26.402Z,93.23
2022-11-28T06:04:26.459Z,93.13
2022-11-28T06:05:41.735Z,93.13
2022-11-28T06:06:27.459Z,93.33
2022-11-28T06:07:26.416Z,93.44
2022-11-28T06:08:26.394Z,93.23
2022-11-28T06:09:26.422Z,92.72
2022-11-28T06:10:26.345Z,93.02
2022-11-28T06:11:26.343Z,92.51
2022-11-28T06:12:26.392Z,93.54
2022-11-28T06:13:26.333Z,92.30
2022-11-28T06:14:26.384Z,92.61
2022-11-28T06:15:26.327Z,92.41
2022-11-28T06:16:26.340Z,92.26
2022-11-28T06:17:26.297Z,91.99
2022-11-28T06:18:26.577Z,91.68
2022-11-28T06:19:26.283Z,92.41
2022-11-28T06:20:26.259Z,92.16
2022-11-28T06:21:26.277Z,91.99
2022-11-28T06:22:26.264Z,91.58
2022-11-28T06:23:26.272Z,91.89
2022-11-28T06:24:26.318Z,91.78
2022-11-28T06:25:26.298Z,92.16
2022-11-28T06:26:26.229Z,91.85
2022-11-28T06:27:26.246Z,92.16
2022-11-28T06:28:26.235Z,91.85
2022-11-28T06:29:26.220Z,91.74
2022-11-28T06:30:26.307Z,92.20
2022-11-28T06:31:26.285Z,91.89
2022-11-28T06:32:26.217Z,93.38
2022-11-28T06:33:26.196Z,93.13
2022-11-28T06:34:26.226Z,93.13
2022-11-28T06:35:26.190Z,93.13
2022-11-28T06:36:26.331Z,93.33
2022-11-28T06:37:26.162Z,92.41
2022-11-28T06:38:26.156Z,92.82
2022-11-28T06:39:26.140Z,92.41
2022-11-28T06:40:26.146Z,92.41
2022-11-28T06:41:26.139Z,91.89
2022-11-28T06:42:26.172Z,91.89
2022-11-28T06:43:26.136Z,91.78
2022-11-28T06:44:26.156Z,91.58
2022-11-28T06:45:26.155Z,92.10
2022-11-28T06:46:26.227Z,91.68
2022-11-28T06:47:26.095Z,91.99
2022-11-28T06:48:26.135Z,92.20
2022-11-28T06:49:26.110Z,91.58
2022-11-28T06:50:26.075Z,91.58
2022-11-28T06:51:26.066Z,91.89
2022-11-28T06:52:26.064Z,91.78
2022-11-28T06:53:31.236Z,91.89
2022-11-28T06:54:27.097Z,91.47
2022-11-28T06:55:26.035Z,91.68
2022-11-28T06:56:26.063Z,91.89
2022-11-28T06:57:26.030Z,91.89
2022-11-28T06:58:26.038Z,91.89
2022-11-28T06:59:26.016Z,91.99
2022-11-28T07:00:26.039Z,91.89
2022-11-28T07:01:26.032Z,91.99
2022-11-28T07:02:26.161Z,91.64
2022-11-28T07:03:25.998Z,92.20
2022-11-28T07:04:25.990Z,91.47
2022-11-28T07:05:25.983Z,91.85
2022-11-28T07:06:26.016Z,91.95
2022-11-28T07:07:26.005Z,91.64
2022-11-28T07:08:26.053Z,91.22
2022-11-28T07:09:25.960Z,91.22
2022-11-28T07:10:25.951Z,91.02
2022-11-28T07:11:25.932Z,90.33
2022-11-28T07:12:25.969Z,90.60
2022-11-28T07:13:25.937Z,91.22
2022-11-28T07:14:25.925Z,91.22
2022-11-28T07:15:25.933Z,91.33
2022-11-28T07:16:25.995Z,91.02
2022-11-28T07:17:25.891Z,90.60
2022-11-28T07:18:25.985Z,91.02
2022-11-28T07:19:25.900Z,90.81
2022-11-28T07:20:25.875Z,90.33
2022-11-28T07:21:25.872Z,90.91
2022-11-28T07:22:25.857Z,91.33
2022-11-28T07:23:25.856Z,91.02
2022-11-28T07:24:25.977Z,91.06
2022-11-28T07:25:25.837Z,91.16
2022-11-28T07:26:25.833Z,91.06
2022-11-28T07:27:25.816Z,91.06
2022-11-28T07:28:25.820Z,91.33
2022-11-28T07:29:25.809Z,91.22
2022-11-28T07:30:25.852Z,91.12
2022-11-28T07:31:25.850Z,91.22
2022-11-28T07:32:25.781Z,91.64
2022-11-28T07:33:25.782Z,91.12
2022-11-28T07:34:25.853Z,91.12
2022-11-28T07:35:25.783Z,91.43
2022-11-28T07:36:25.804Z,91.02
2022-11-28T07:37:25.766Z,90.70
2022-11-28T07:38:25.769Z,90.91
2022-11-28T07:39:25.751Z,90.91
2022-11-28T07:40:25.744Z,90.66
2022-11-28T07:41:27.052Z,90.81
2022-11-28T07:42:25.784Z,90.50
2022-11-28T07:43:25.721Z,90.81
2022-11-28T07:44:25.728Z,91.02
2022-11-28T07:45:37.054Z,90.91
2022-11-28T07:46:26.751Z,91.02
2022-11-28T07:47:25.691Z,91.12
2022-11-28T07:48:25.741Z,90.91
2022-11-28T07:49:25.656Z,90.70
2022-11-28T07:50:25.677Z,90.50
2022-11-28T07:51:25.668Z,90.81
2022-11-28T07:52:25.672Z,90.64
2022-11-28T07:53:25.637Z,90.70
2022-11-28T07:54:25.678Z,90.54
2022-11-28T07:55:25.619Z,90.70
2022-11-28T07:56:25.632Z,90.81
2022-11-28T07:57:25.631Z,90.97
2022-11-28T07:58:25.622Z,90.81
2022-11-28T07:59:25.598Z,90.70
2022-11-28T08:00:25.737Z,90.66
2022-11-28T08:01:25.572Z,90.35
2022-11-28T08:02:25.623Z,89.25
2022-11-28T08:03:25.583Z,89.36
2022-11-28T08:04:25.589Z,89.77
2022-11-28T08:05:25.565Z,90.08
2022-11-28T08:06:25.599Z,89.67
2022-11-28T08:07:25.575Z,90.50
2022-11-28T08:08:25.541Z,90.14
2022-11-28T08:09:25.525Z,90.29
2022-11-28T08:10:25.593Z,89.73
2022-11-28T08:11:25.515Z,89.77
2022-11-28T08:12:25.577Z,89.87
2022-11-28T08:13:25.502Z,89.31
2022-11-28T08:14:25.490Z,89.77
2022-11-28T08:15:25.479Z,90.08
2022-11-28T08:16:25.528Z,90.81
2022-11-28T08:17:25.472Z,89.67
2022-11-28T08:18:25.501Z,89.67
2022-11-28T08:19:26.570Z,89.87
2022-11-28T08:20:25.515Z,89.83
2022-11-28T08:21:25.445Z,89.62
2022-11-28T08:22:25.427Z,89.87
2022-11-28T08:23:25.438Z,89.31
2022-11-28T08:24:25.584Z,88.79
2022-11-28T08:25:25.427Z,89.73
2022-11-28T08:26:28.965Z,90.14
2022-11-28T08:27:26.401Z,89.36
2022-11-28T08:28:25.412Z,89.56
2022-11-28T08:29:25.395Z,89.83
2022-11-28T08:30:25.432Z,90.19
2022-11-28T08:31:25.432Z,90.19
2022-11-28T08:32:25.400Z,89.04
2022-11-28T08:33:25.358Z,89.67
2022-11-28T08:34:25.345Z,90.19
2022-11-28T08:35:25.346Z,89.62
2022-11-28T08:36:25.406Z,89.31
2022-11-28T08:37:25.343Z,89.62
2022-11-28T08:38:25.327Z,89.77
2022-11-28T08:39:25.654Z,90.08
2022-11-28T08:40:25.307Z,89.77
2022-11-28T08:41:25.300Z,89.62
2022-11-28T08:42:25.368Z,90.04
2022-11-28T08:43:25.286Z,89.94
2022-11-28T08:44:25.275Z,89.11
2022-11-28T08:45:25.278Z,89.52
2022-11-28T08:46:25.299Z,89.42
2022-11-28T08:47:25.259Z,89.62
2022-11-28T08:48:25.309Z,89.73
2022-11-28T08:49:25.249Z,89.21
2022-11-28T08:50:25.270Z,89.31
2022-11-28T08:51:25.252Z,89.31
2022-11-28T08:52:25.243Z,88.79
2022-11-28T08:53:25.217Z,89.31
2022-11-28T08:54:25.279Z,89.31
2022-11-28T08:55:32.109Z,89.79
2022-11-28T08:56:26.215Z,89.28
2022-11-28T08:57:25.196Z,88.13
2022-11-28T08:58:25.183Z,88.65
2022-11-28T08:59:25.201Z,88.24
2022-11-28T09:00:25.232Z,88.34
2022-11-28T09:01:25.270Z,88.39
2022-11-28T09:02:26.205Z,88.69
2022-11-28T09:03:25.178Z,89.11
2022-11-28T09:04:25.183Z,89.17
2022-11-28T09:05:25.140Z,89.38
2022-11-28T09:06:25.190Z,89.28
2022-11-28T09:07:25.220Z,88.96
2022-11-28T09:08:25.108Z,89.23
2022-11-28T09:09:27.085Z,89.44
2022-11-28T09:10:25.118Z,88.82
2022-11-28T09:11:25.081Z,88.20
2022-11-28T09:12:25.102Z,88.45
2022-11-28T09:13:25.082Z,89.13
2022-11-28T09:14:25.080Z,87.93
2022-11-28T09:15:25.058Z,87.93
2022-11-28T09:16:25.128Z,88.45
2022-11-28T09:17:25.065Z,88.24
2022-11-28T09:18:25.087Z,88.09
2022-11-28T09:19:25.056Z,87.82
2022-11-28T09:20:25.040Z,87.47
2022-11-28T09:21:25.029Z,87.16
2022-11-28T09:22:25.018Z,87.06
2022-11-28T09:23:25.023Z,87.27
2022-11-28T09:24:25.041Z,87.68
2022-11-28T09:25:24.987Z,86.50
2022-11-28T09:26:24.983Z,86.09
2022-11-28T09:27:24.979Z,86.44
2022-11-28T09:28:24.983Z,86.96
2022-11-28T09:29:24.970Z,86.91
2022-11-28T09:30:25.064Z,86.50
2022-11-28T09:31:25.037Z,86.46
2022-11-28T09:32:24.968Z,86.19
2022-11-28T09:33:24.934Z,85.84
2022-11-28T09:34:24.948Z,86.50
2022-11-28T09:35:24.924Z,86.19
2022-11-28T09:36:24.967Z,86.36
2022-11-28T09:37:24.912Z,85.94
2022-11-28T09:38:24.916Z,86.46
2022-11-28T09:39:24.895Z,86.83
2022-11-28T09:40:24.889Z,86.52
2022-11-28T09:41:24.878Z,86.21
2022-11-28T09:42:24.936Z,85.42
2022-11-28T09:43:24.867Z,85.11
2022-11-28T09:44:24.866Z,86.46
2022-11-28T09:45:24.838Z,86.67
2022-11-28T09:46:24.931Z,86.46
2022-11-28T09:47:24.865Z,86.77
2022-11-28T09:48:24.902Z,86.98
2022-11-28T09:49:24.825Z,86.88
2022-11-28T09:50:24.856Z,86.36
2022-11-28T09:51:24.801Z,86.15
2022-11-28T09:52:24.849Z,86.15
2022-11-28T09:53:24.811Z,85.63
2022-11-28T09:54:24.875Z,86.15
2022-11-28T09:55:24.775Z,85.99
2022-11-28T09:56:24.772Z,85.99
2022-11-28T09:57:24.768Z,85.99
2022-11-28T09:58:24.828Z,85.78
2022-11-28T09:59:24.763Z,86.15
2022-11-28T10:00:24.807Z,85.88
2022-11-28T10:01:24.733Z,85.99
2022-11-28T10:02:24.733Z,86.33
2022-11-28T10:03:24.792Z,86.75
2022-11-28T10:04:24.769Z,86.71
2022-11-28T10:05:24.723Z,86.81
2022-11-28T10:06:24.765Z,86.71
2022-11-28T10:07:24.745Z,86.81
2022-11-28T10:08:24.699Z,86.09
2022-11-28T10:09:24.691Z,85.88
2022-11-28T10:10:24.677Z,85.99
2022-11-28T10:11:24.659Z,85.99
2022-11-28T10:12:24.696Z,86.19
2022-11-28T10:13:27.396Z,85.84
2022-11-28T10:14:25.671Z,85.74
2022-11-28T10:15:24.655Z,85.32
2022-11-28T10:16:24.723Z,85.53
2022-11-28T10:17:24.630Z,85.74
2022-11-28T10:18:24.680Z,85.39
2022-11-28T10:19:46.598Z,86.01
2022-11-28T10:20:25.609Z,85.18
2022-11-28T10:21:24.594Z,85.08
2022-11-28T10:22:24.603Z,84.56
2022-11-28T10:23:24.582Z,84.66
2022-11-28T10:24:24.625Z,84.94
2022-11-28T10:25:24.573Z,85.14
2022-11-28T10:26:24.569Z,83.70
2022-11-28T10:27:27.038Z,83.80
2022-11-28T10:28:24.530Z,83.39
2022-11-28T10:29:24.550Z,83.70
2022-11-28T10:30:24.637Z,84.00
2022-11-28T10:31:24.555Z,83.39
2022-11-28T10:32:24.535Z,83.70
2022-11-28T10:33:24.526Z,82.87
2022-11-28T10:34:24.539Z,83.49
2022-11-28T10:35:28.281Z,83.76
2022-11-28T10:36:24.552Z,83.90
2022-11-28T10:37:24.507Z,82.25
2022-11-28T10:38:24.486Z,82.66
2022-11-28T10:39:24.485Z,83.01
2022-11-28T10:40:24.461Z,83.73
2022-11-28T10:41:24.477Z,83.70
2022-11-28T10:42:24.526Z,83.39
2022-11-28T10:43:24.486Z,84.07
2022-11-28T10:44:24.484Z,82.66
2022-11-28T10:45:24.465Z,82.97
2022-11-28T10:46:24.477Z,82.97
2022-11-28T10:47:24.460Z,82.15
2022-11-28T10:48:40.828Z,82.62
2022-11-28T10:49:25.416Z,82.52
2022-11-28T10:50:29.305Z,82.66
2022-11-28T10:51:25.387Z,82.66
2022-11-28T10:52:24.369Z,82.66
2022-11-28T10:53:24.357Z,82.56
2022-11-28T10:54:24.431Z,82.66
2022-11-28T10:55:24.370Z,81.59
2022-11-28T10:56:24.338Z,81.94
2022-11-28T10:57:24.350Z,82.25
2022-11-28T10:58:24.351Z,82.15
2022-11-28T10:59:24.337Z,82.45
2022-11-28T11:00:24.389Z,82.45
2022-11-28T11:01:24.390Z,82.66
2022-11-28T11:02:24.306Z,82.25
2022-11-28T11:03:24.314Z,81.80
2022-11-28T11:04:24.376Z,82.00
2022-11-28T11:05:24.322Z,82.00
2022-11-28T11:06:24.316Z,82.42
2022-11-28T11:07:29.272Z,81.96
2022-11-28T11:08:25.387Z,81.86
2022-11-28T11:09:24.278Z,81.49
2022-11-28T11:10:24.265Z,81.38
2022-11-28T11:11:24.274Z,81.80
2022-11-28T11:12:24.288Z,82.35
2022-11-28T11:13:24.246Z,82.56
2022-11-28T11:14:24.222Z,82.76
2022-11-28T11:15:24.232Z,82.25
2022-11-28T11:16:24.294Z,82.76
2022-11-28T11:17:24.215Z,82.80
2022-11-28T11:18:24.243Z,83.07
2022-11-28T11:19:24.227Z,83.39
2022-11-28T11:20:24.197Z,82.83
2022-11-28T11:21:24.183Z,82.52
2022-11-28T11:22:24.179Z,82.56
2022-11-28T11:23:24.175Z,82.73
2022-11-28T11:24:24.252Z,82.62
2022-11-28T11:25:24.170Z,82.00
2022-11-28T11:26:24.151Z,82.56
2022-11-28T11:27:24.147Z,81.94
2022-11-28T11:28:24.145Z,82.25
2022-11-28T11:29:24.141Z,82.10
2022-11-28T11:30:25.288Z,82.10
2022-11-28T11:31:24.191Z,82.00
2022-11-28T11:32:24.102Z,82.04
2022-11-28T11:33:24.115Z,82.15
2022-11-28T11:34:24.095Z,82.35
2022-11-28T11:35:24.077Z,82.56
2022-11-28T11:36:24.191Z,83.11
2022-11-28T11:37:24.078Z,83.49
2022-11-28T11:38:24.096Z,83.80
2022-11-28T11:39:24.047Z,83.28
2022-11-28T11:40:24.079Z,83.59
2022-11-28T11:41:24.060Z,82.97
2022-11-28T11:42:24.093Z,83.25
2022-11-28T11:43:24.020Z,82.25
2022-11-28T11:44:24.014Z,82.25
2022-11-28T11:45:24.000Z,82.93
2022-11-28T11:46:24.077Z,83.65
2022-11-28T11:47:23.973Z,82.42
2022-11-28T11:48:24.063Z,83.04
2022-11-28T11:49:23.975Z,82.21
2022-11-28T11:50:23.987Z,82.52
2022-11-28T11:51:23.970Z,83.28
2022-11-28T11:52:23.949Z,83.65
2022-11-28T11:53:23.945Z,83.97
2022-11-28T11:54:23.992Z,84.52
2022-11-28T11:55:23.942Z,84.69
2022-11-28T11:56:23.920Z,85.76
2022-11-28T11:57:36.906Z,86.44
2022-11-28T11:58:24.921Z,86.28
2022-11-28T11:59:23.922Z,87.17
2022-11-28T12:00:23.945Z,88.41
2022-11-28T12:01:23.884Z,87.41
2022-11-28T12:02:23.907Z,87.62
2022-11-28T12:03:23.980Z,87.83
2022-11-28T12:04:44.702Z,87.46
2022-11-28T12:05:24.908Z,89.11
2022-11-28T12:06:23.853Z,89.94
2022-11-28T12:07:23.858Z,89.69
2022-11-28T12:08:23.830Z,89.42
2022-11-28T12:09:23.856Z,89.83
2022-11-28T12:10:23.851Z,90.66
2022-11-28T12:11:23.884Z,90.14
2022-11-28T12:12:23.844Z,89.83
2022-11-28T12:13:23.824Z,90.35
2022-11-28T12:14:23.791Z,90.56
2022-11-28T12:15:23.823Z,89.46
2022-11-28T12:16:23.896Z,90.60
2022-11-28T12:17:47.758Z,90.19
2022-11-28T12:18:24.795Z,91.69
2022-11-28T12:19:23.768Z,91.80
2022-11-28T12:20:23.789Z,90.70
2022-11-28T12:21:23.781Z,90.97
2022-11-28T12:22:23.768Z,91.59
2022-11-28T12:23:23.781Z,91.59
2022-11-28T12:24:23.787Z,91.38
2022-11-28T12:25:23.736Z,90.77
2022-11-28T12:26:23.717Z,92.21
2022-11-28T12:27:23.735Z,91.07
2022-11-28T12:28:23.692Z,92.72
2022-11-28T12:29:23.722Z,91.59
2022-11-28T12:30:23.677Z,90.56
2022-11-28T12:31:23.758Z,90.35
2022-11-28T12:32:23.670Z,90.77
2022-11-28T12:33:23.677Z,90.97
2022-11-28T12:34:23.688Z,90.72
2022-11-28T12:35:23.711Z,90.62
2022-11-28T12:36:23.668Z,90.52
2022-11-28T12:37:33.086Z,91.13
2022-11-28T12:38:24.644Z,89.48
2022-11-28T12:39:23.644Z,89.48
2022-11-28T12:40:23.612Z,89.42
2022-11-28T12:41:29.128Z,90.14
2022-11-28T12:42:24.621Z,90.66
2022-11-28T12:43:23.625Z,90.93
2022-11-28T12:44:24.623Z,90.72
2022-11-28T12:45:23.607Z,90.66
2022-11-28T12:46:23.598Z,90.62
2022-11-28T12:47:23.679Z,89.38
2022-11-28T12:48:23.584Z,89.65
2022-11-28T12:49:23.566Z,89.23
2022-11-28T12:50:23.555Z,89.79
2022-11-28T12:51:23.583Z,89.69
2022-11-28T12:52:23.559Z,89.38